createdAt,value
2022-11-15T00:02:41.768Z,7.32
2022-11-15T00:05:39.359Z,7.34
2022-11-15T00:08:38.277Z,7.36
2022-11-15T00:11:35.978Z,7.37
2022-11-15T00:14:33.595Z,7.39
2022-11-15T00:17:31.201Z,7.40
2022-11-15T00:20:28.803Z,7.41
2022-11-15T00:23:26.472Z,7.43
2022-11-15T00:26:24.122Z,7.43
2022-11-15T00:29:21.741Z,7.44
2022-11-15T00:32:19.356Z,7.44
2022-11-15T00:35:16.952Z,7.42
2022-11-15T00:38:14.590Z,7.39
2022-11-15T00:41:12.195Z,7.38
2022-11-15T00:44:09.843Z,7.37
2022-11-15T00:47:07.491Z,7.36
2022-11-15T00:50:05.337Z,7.34
2022-11-15T00:53:02.920Z,7.34
2022-11-15T00:56:00.512Z,7.34
2022-11-15T00:58:58.099Z,7.34
2022-11-15T01:01:55.684Z,7.35
2022-11-15T01:04:53.163Z,7.36
2022-11-15T01:07:50.631Z,7.37
2022-11-15T01:10:48.617Z,7.39
2022-11-15T01:13:46.085Z,7.38
2022-11-15T01:16:43.599Z,7.38
2022-11-15T01:19:41.052Z,7.37
2022-11-15T01:22:38.523Z,7.37
2022-11-15T01:25:35.993Z,7.38
2022-11-15T01:28:33.452Z,7.36
2022-11-15T01:31:31.573Z,7.35
2022-11-15T01:34:29.081Z,7.36
2022-11-15T01:37:27.974Z,7.37
2022-11-15T01:40:25.540Z,7.38
2022-11-15T01:43:23.201Z,7.39
2022-11-15T01:46:20.748Z,7.38
2022-11-15T01:49:18.269Z,7.39
2022-11-15T01:52:15.968Z,7.40
2022-11-15T01:55:13.509Z,7.41
2022-11-15T01:58:10.997Z,7.42
2022-11-15T02:01:08.595Z,7.43
2022-11-15T02:04:06.118Z,7.44
2022-11-15T02:07:03.646Z,7.45
2022-11-15T02:10:01.177Z,7.47
2022-11-15T02:12:58.708Z,7.48
2022-11-15T02:16:00.361Z,7.50
2022-11-15T02:19:00.245Z,7.50
2022-11-15T02:21:57.741Z,7.51
2022-11-15T02:24:55.253Z,7.52
2022-11-15T02:27:52.775Z,7.51
2022-11-15T02:30:50.275Z,7.49
2022-11-15T02:33:47.767Z,7.50
2022-11-15T02:36:45.399Z,7.52
2022-11-15T02:39:42.838Z,7.54
2022-11-15T02:42:58.081Z,7.56
2022-11-15T02:45:55.556Z,7.57
2022-11-15T02:48:53.025Z,7.58
2022-11-15T02:51:50.828Z,7.58
2022-11-15T02:54:48.333Z,7.58
2022-11-15T02:57:45.788Z,7.58
2022-11-15T03:00:43.331Z,7.57
2022-11-15T03:03:40.855Z,7.58
2022-11-15T03:06:38.553Z,7.59
2022-11-15T03:09:36.025Z,7.60
2022-11-15T03:12:35.111Z,7.62
2022-11-15T03:15:32.623Z,7.63
2022-11-15T03:18:30.126Z,7.63
2022-11-15T03:21:27.584Z,7.64
2022-11-15T03:24:26.319Z,7.65
2022-11-15T03:27:23.878Z,7.65
2022-11-15T03:30:21.361Z,7.64
2022-11-15T03:33:18.811Z,7.64
2022-11-15T03:36:16.308Z,7.62
2022-11-15T03:39:19.203Z,7.61
2022-11-15T03:42:18.047Z,7.59
2022-11-15T03:45:15.507Z,7.58
2022-11-15T03:48:12.972Z,7.57
2022-11-15T03:51:10.410Z,7.56
2022-11-15T03:54:07.894Z,7.56
2022-11-15T03:57:05.365Z,7.56
2022-11-15T04:00:02.867Z,7.56
2022-11-15T04:03:00.437Z,7.57
2022-11-15T04:05:57.873Z,7.55
2022-11-15T04:08:55.343Z,7.55
2022-11-15T04:11:52.806Z,7.54
2022-11-15T04:15:08.228Z,7.56
2022-11-15T04:18:05.838Z,7.56
2022-11-15T04:21:17.158Z,7.54
2022-11-15T04:24:14.619Z,7.52
2022-11-15T04:27:13.931Z,7.51
2022-11-15T04:30:11.378Z,7.51
2022-11-15T04:33:08.828Z,7.54
2022-11-15T04:36:23.951Z,7.56
2022-11-15T04:39:21.350Z,7.57
2022-11-15T04:42:18.818Z,7.57
2022-11-15T04:45:16.816Z,7.56
2022-11-15T04:48:14.307Z,7.55
2022-11-15T04:51:11.788Z,7.55
2022-11-15T04:54:09.240Z,7.56
2022-11-15T04:57:06.718Z,7.55
2022-11-15T05:00:04.950Z,7.52
2022-11-15T05:03:20.255Z,7.52
2022-11-15T05:06:17.741Z,7.52
2022-11-15T05:09:15.384Z,7.52
2022-11-15T05:12:12.834Z,7.53
2022-11-15T05:15:10.302Z,7.56
2022-11-15T05:18:07.799Z,7.57
2022-11-15T05:21:05.255Z,7.56
2022-11-15T05:24:02.707Z,7.57
2022-11-15T05:27:00.139Z,7.58
2022-11-15T05:29:57.609Z,7.58
2022-11-15T05:32:55.065Z,7.60
2022-11-15T05:35:52.519Z,7.61
2022-11-15T05:38:50.008Z,7.61
2022-11-15T05:41:47.475Z,7.63
2022-11-15T05:44:44.942Z,7.62
2022-11-15T05:47:42.397Z,7.61
2022-11-15T05:50:39.903Z,7.62
2022-11-15T05:53:37.808Z,7.63
2022-11-15T05:56:35.296Z,7.64
2022-11-15T05:59:32.766Z,7.64
2022-11-15T06:02:30.284Z,7.64
2022-11-15T06:05:27.818Z,7.65
2022-11-15T06:08:25.281Z,7.65
2022-11-15T06:11:22.767Z,7.64
2022-11-15T06:14:20.260Z,7.65
2022-11-15T06:17:17.713Z,7.66
2022-11-15T06:20:15.201Z,7.66
2022-11-15T06:23:12.908Z,7.68
2022-11-15T06:26:10.361Z,7.69
2022-11-15T06:29:07.806Z,7.72
2022-11-15T06:32:05.241Z,7.72
2022-11-15T06:35:02.699Z,7.72
2022-11-15T06:38:00.143Z,7.73
2022-11-15T06:40:57.586Z,7.74
2022-11-15T06:43:55.021Z,7.73
2022-11-15T06:46:52.457Z,7.72
2022-11-15T06:49:49.888Z,7.71
2022-11-15T06:52:47.328Z,7.71
2022-11-15T06:55:44.785Z,7.72
2022-11-15T06:58:42.236Z,7.72
2022-11-15T07:01:39.738Z,7.70
2022-11-15T07:04:38.076Z,7.67
2022-11-15T07:07:35.585Z,7.66
2022-11-15T07:10:33.172Z,7.67
2022-11-15T07:13:30.964Z,7.67
2022-11-15T07:16:28.610Z,7.67
2022-11-15T07:19:26.073Z,7.67
2022-11-15T07:22:23.509Z,7.66
2022-11-15T07:25:20.999Z,7.65
2022-11-15T07:28:18.574Z,7.65
2022-11-15T07:31:16.084Z,7.65
2022-11-15T07:34:13.527Z,7.64
2022-11-15T07:37:10.976Z,7.66
2022-11-15T07:40:08.439Z,7.70
2022-11-15T07:43:05.926Z,7.71
2022-11-15T07:46:03.393Z,7.69
2022-11-15T07:49:00.856Z,7.70
2022-11-15T07:51:58.377Z,7.70
2022-11-15T07:54:55.852Z,7.70
2022-11-15T07:57:53.309Z,7.71
2022-11-15T08:00:50.758Z,7.73
2022-11-15T08:03:48.237Z,7.76
2022-11-15T08:06:45.755Z,7.78
2022-11-15T08:09:43.280Z,7.80
2022-11-15T08:12:40.819Z,7.79
2022-11-15T08:15:38.316Z,7.80
2022-11-15T08:18:35.797Z,7.81
2022-11-15T08:21:33.214Z,7.80
2022-11-15T08:24:30.684Z,7.80
2022-11-15T08:27:28.185Z,7.83
2022-11-15T08:30:25.725Z,7.88
2022-11-15T08:33:23.208Z,7.93
2022-11-15T08:36:21.661Z,7.95
2022-11-15T08:39:19.099Z,7.97
2022-11-15T08:42:20.083Z,8.00
2022-11-15T08:45:17.858Z,8.02
2022-11-15T08:48:15.844Z,8.04
2022-11-15T08:51:13.339Z,8.03
2022-11-15T08:54:10.996Z,8.03
2022-11-15T08:57:08.607Z,8.05
2022-11-15T09:00:06.121Z,8.07
2022-11-15T09:03:04.156Z,8.09
2022-11-15T09:06:01.697Z,8.09
2022-11-15T09:08:59.325Z,8.11
2022-11-15T09:12:01.426Z,8.14
2022-11-15T09:15:00.363Z,8.16
2022-11-15T09:17:57.891Z,8.21
2022-11-15T09:20:55.413Z,8.23
2022-11-15T09:23:53.530Z,8.24
2022-11-15T09:26:51.042Z,8.23
2022-11-15T09:29:48.532Z,8.24
2022-11-15T09:32:46.035Z,8.25
2022-11-15T09:35:43.558Z,8.25
2022-11-15T09:38:43.442Z,8.24
2022-11-15T09:41:40.981Z,8.22
2022-11-15T09:44:38.500Z,8.21
2022-11-15T09:47:35.988Z,8.21
2022-11-15T09:50:33.481Z,8.24
2022-11-15T09:54:13.721Z,8.28
2022-11-15T09:56:49.093Z,8.30
2022-11-15T09:59:46.551Z,8.33
2022-11-15T10:02:45.085Z,8.38
2022-11-15T10:05:45.342Z,8.44
2022-11-15T10:08:42.796Z,8.50
2022-11-15T10:11:40.314Z,8.53
2022-11-15T10:14:37.796Z,8.54
2022-11-15T10:17:35.266Z,8.57
2022-11-15T10:20:34.020Z,8.60
2022-11-15T10:23:31.527Z,8.61
2022-11-15T10:26:29.432Z,8.63
2022-11-15T10:29:27.527Z,8.65
2022-11-15T10:32:25.091Z,8.68
2022-11-15T10:35:22.519Z,8.69
2022-11-15T10:38:19.998Z,8.70
2022-11-15T10:41:17.461Z,8.69
2022-11-15T10:44:14.929Z,8.70
2022-11-15T10:47:14.692Z,8.71
2022-11-15T10:50:12.149Z,8.70
2022-11-15T10:53:09.615Z,8.72
2022-11-15T10:56:07.064Z,8.75
2022-11-15T10:59:04.649Z,8.79
2022-11-15T11:02:02.120Z,8.81
2022-11-15T11:04:59.611Z,8.80
2022-11-15T11:07:57.099Z,8.80
2022-11-15T11:11:00.257Z,8.78
2022-11-15T11:13:59.940Z,8.78
2022-11-15T11:16:57.725Z,8.76
2022-11-15T11:19:55.186Z,8.76
2022-11-15T11:22:52.660Z,8.76
2022-11-15T11:25:50.137Z,8.77
2022-11-15T11:28:47.597Z,8.76
2022-11-15T11:31:45.056Z,8.77
2022-11-15T11:34:42.613Z,8.80
2022-11-15T11:37:40.051Z,8.80
2022-11-15T11:40:37.491Z,8.82
2022-11-15T11:43:34.954Z,8.84
2022-11-15T11:46:32.533Z,8.85
2022-11-15T11:49:30.000Z,8.83
2022-11-15T11:52:28.135Z,8.82
2022-11-15T11:55:25.602Z,8.83
2022-11-15T11:58:23.122Z,8.84
2022-11-15T12:01:20.602Z,8.87
2022-11-15T12:04:18.112Z,8.91
2022-11-15T12:07:15.603Z,8.94
2022-11-15T12:10:13.147Z,8.94
2022-11-15T12:13:10.677Z,8.93
2022-11-15T12:16:10.429Z,8.94
2022-11-15T12:19:08.217Z,8.96
2022-11-15T12:22:05.689Z,8.98
2022-11-15T12:25:03.171Z,8.98
2022-11-15T12:28:01.395Z,8.98
2022-11-15T12:30:58.907Z,8.97
2022-11-15T12:33:56.357Z,8.95
2022-11-15T12:36:54.394Z,8.95
2022-11-15T12:39:51.855Z,8.96
2022-11-15T12:42:49.307Z,8.98
2022-11-15T12:45:46.770Z,8.99
2022-11-15T12:48:44.433Z,9.01
2022-11-15T12:51:41.879Z,9.04
2022-11-15T12:54:39.614Z,9.04
2022-11-15T12:57:37.460Z,9.04
2022-11-15T13:00:34.927Z,9.04
2022-11-15T13:03:32.386Z,9.05
2022-11-15T13:06:29.853Z,9.02
2022-11-15T13:09:27.479Z,8.99
2022-11-15T13:12:24.949Z,8.96
2022-11-15T13:15:23.037Z,8.95
2022-11-15T13:18:20.492Z,8.94
2022-11-15T13:21:31.834Z,8.93
2022-11-15T13:24:29.303Z,8.91
2022-11-15T13:27:26.766Z,8.90
2022-11-15T13:30:24.258Z,8.88
2022-11-15T13:33:21.734Z,8.88
2022-11-15T13:36:19.187Z,8.89
2022-11-15T13:39:16.700Z,8.88
2022-11-15T13:42:14.136Z,8.88
2022-11-15T13:45:11.598Z,8.89
2022-11-15T13:48:09.128Z,8.90
2022-11-15T13:51:06.593Z,8.92
2022-11-15T13:54:04.048Z,8.92
2022-11-15T13:57:01.510Z,8.93
2022-11-15T13:59:58.998Z,8.95
2022-11-15T14:02:56.449Z,8.97
2022-11-15T14:05:53.919Z,8.98
2022-11-15T14:08:51.409Z,8.97
2022-11-15T14:11:48.951Z,8.95
2022-11-15T14:14:46.421Z,8.95
2022-11-15T14:17:49.745Z,8.95
2022-11-15T14:20:47.658Z,8.97
2022-11-15T14:23:45.115Z,8.99
2022-11-15T14:26:43.282Z,9.02
2022-11-15T14:29:40.713Z,9.03
2022-11-15T14:32:38.205Z,9.04
2022-11-15T14:35:35.686Z,9.04
2022-11-15T14:38:33.408Z,9.05
2022-11-15T14:41:33.639Z,9.06
2022-11-15T14:44:31.103Z,9.08
2022-11-15T14:47:28.561Z,9.10
2022-11-15T14:50:26.037Z,9.11
2022-11-15T14:53:23.526Z,9.13
2022-11-15T14:56:21.028Z,9.14
2022-11-15T14:59:18.463Z,9.12
2022-11-15T15:02:15.913Z,9.12
2022-11-15T15:05:13.353Z,9.12
2022-11-15T15:08:10.950Z,9.14
2022-11-15T15:11:08.493Z,9.15
2022-11-15T15:14:05.962Z,9.14
2022-11-15T15:17:03.480Z,9.14
2022-11-15T15:20:00.922Z,9.16
2022-11-15T15:22:58.390Z,9.15
2022-11-15T15:25:55.851Z,9.15
2022-11-15T15:28:53.323Z,9.17
2022-11-15T15:31:50.783Z,9.19
2022-11-15T15:34:48.230Z,9.20
2022-11-15T15:37:45.722Z,9.19
2022-11-15T15:40:43.183Z,9.20
2022-11-15T15:43:41.397Z,9.21
2022-11-15T15:46:38.863Z,9.22
2022-11-15T15:49:36.363Z,9.21
2022-11-15T15:52:33.963Z,9.21
2022-11-15T15:55:31.420Z,9.21
2022-11-15T15:58:28.896Z,9.21
2022-11-15T16:01:27.000Z,9.21
2022-11-15T16:04:28.981Z,9.20
2022-11-15T16:07:26.466Z,9.20
2022-11-15T16:10:23.983Z,9.21
2022-11-15T16:13:21.443Z,9.23
2022-11-15T16:16:18.894Z,9.22
2022-11-15T16:19:16.650Z,9.20
2022-11-15T16:22:14.127Z,9.19
2022-11-15T16:25:11.605Z,9.19
2022-11-15T16:28:09.373Z,9.18
2022-11-15T16:31:06.876Z,9.17
2022-11-15T16:34:04.434Z,9.17
2022-11-15T16:37:02.078Z,9.16
2022-11-15T16:40:01.168Z,9.14
2022-11-15T16:42:59.999Z,9.13
2022-11-15T16:45:57.740Z,9.11
2022-11-15T16:48:55.241Z,9.08
2022-11-15T16:51:53.542Z,9.07
2022-11-15T16:54:51.059Z,9.07
2022-11-15T16:57:55.127Z,9.07
2022-11-15T17:00:55.528Z,9.08
2022-11-15T17:03:54.440Z,9.10
2022-11-15T17:06:52.837Z,9.11
2022-11-15T17:09:50.424Z,9.11
2022-11-15T17:12:48.244Z,9.11
2022-11-15T17:15:46.218Z,9.13
2022-11-15T17:18:45.913Z,9.13
2022-11-15T17:21:43.471Z,9.12
2022-11-15T17:24:42.768Z,9.11
2022-11-15T17:27:41.138Z,9.10
2022-11-15T17:30:39.772Z,9.10
2022-11-15T17:33:38.095Z,9.09
2022-11-15T17:36:36.112Z,9.08
2022-11-15T17:39:33.740Z,9.06
2022-11-15T17:42:33.219Z,9.05
2022-11-15T17:45:31.419Z,9.05
2022-11-15T17:48:29.141Z,9.04
2022-11-15T17:51:27.791Z,9.03
2022-11-15T17:54:29.678Z,9.03
2022-11-15T17:57:27.733Z,9.02
2022-11-15T18:00:27.720Z,9.01
2022-11-15T18:03:25.805Z,9.00
2022-11-15T18:06:25.801Z,8.97
2022-11-15T18:09:26.577Z,8.96
2022-11-15T18:12:24.701Z,8.97
2022-11-15T18:15:23.225Z,8.97
2022-11-15T18:18:20.829Z,8.98
2022-11-15T18:21:18.825Z,8.97
2022-11-15T18:24:17.407Z,8.97
2022-11-15T18:27:15.911Z,8.97
2022-11-15T18:30:13.668Z,8.98
2022-11-15T18:33:11.452Z,8.99
2022-11-15T18:36:09.608Z,8.99
2022-11-15T18:39:07.767Z,9.00
2022-11-15T18:42:06.856Z,8.98
2022-11-15T18:45:04.967Z,8.97
2022-11-15T18:48:03.350Z,8.98
2022-11-15T18:51:04.893Z,8.97
2022-11-15T18:54:03.804Z,8.97
2022-11-15T18:57:04.284Z,8.98
2022-11-15T19:00:03.402Z,8.97
2022-11-15T19:03:01.847Z,8.98
2022-11-15T19:06:01.368Z,8.99
2022-11-15T19:08:59.113Z,9.00
2022-11-15T19:11:57.137Z,9.00
2022-11-15T19:14:55.478Z,9.01
2022-11-15T19:17:53.759Z,9.02
2022-11-15T19:20:52.079Z,9.02
2022-11-15T19:23:50.341Z,9.04
2022-11-15T19:26:48.927Z,9.06
2022-11-15T19:29:47.019Z,9.09
2022-11-15T19:32:47.891Z,9.11
2022-11-15T19:35:46.141Z,9.12
2022-11-15T19:38:48.819Z,9.14
2022-11-15T19:41:46.820Z,9.15
2022-11-15T19:44:44.980Z,9.14
2022-11-15T19:47:44.851Z,9.13
2022-11-15T19:50:43.100Z,9.14
2022-11-15T19:53:41.854Z,9.15
2022-11-15T19:56:41.931Z,9.17
2022-11-15T19:59:40.826Z,9.18
2022-11-15T20:02:38.838Z,9.20
2022-11-15T20:05:37.045Z,9.21
2022-11-15T20:08:35.515Z,9.22
2022-11-15T20:11:35.491Z,9.24
2022-11-15T20:14:33.254Z,9.26
2022-11-15T20:17:31.283Z,9.28
2022-11-15T20:20:30.757Z,9.27
2022-11-15T20:23:28.935Z,9.27
2022-11-15T20:26:28.036Z,9.26
2022-11-15T20:29:26.580Z,9.25
2022-11-15T20:32:24.480Z,9.25
2022-11-15T20:35:24.138Z,9.24
2022-11-15T20:38:21.957Z,9.23
2022-11-15T20:41:23.118Z,9.22
2022-11-15T20:44:20.878Z,9.20
2022-11-15T20:47:19.266Z,9.20
2022-11-15T20:50:41.012Z,9.23
2022-11-15T20:53:34.824Z,9.25
2022-11-15T20:56:32.955Z,9.27
2022-11-15T20:59:30.743Z,9.29
2022-11-15T21:02:29.250Z,9.30
2022-11-15T21:05:26.937Z,9.30
2022-11-15T21:08:24.860Z,9.31
2022-11-15T21:11:40.332Z,9.32
2022-11-15T21:14:38.248Z,9.33
2022-11-15T21:17:35.786Z,9.34
2022-11-15T21:20:33.614Z,9.34
2022-11-15T21:23:31.795Z,9.35
2022-11-15T21:26:29.350Z,9.35
2022-11-15T21:29:26.843Z,9.35
2022-11-15T21:32:24.356Z,9.36
2022-11-15T21:35:22.786Z,9.35
2022-11-15T21:38:20.311Z,9.34
2022-11-15T21:41:18.001Z,9.34
2022-11-15T21:44:15.532Z,9.33
2022-11-15T21:47:13.042Z,9.32
2022-11-15T21:50:10.558Z,9.32
2022-11-15T21:53:08.105Z,9.32
2022-11-15T21:56:05.566Z,9.31
2022-11-15T21:59:04.824Z,9.28
2022-11-15T22:02:17.769Z,9.27
2022-11-15T22:05:15.353Z,9.27
2022-11-15T22:08:12.915Z,9.25
2022-11-15T22:11:10.423Z,9.23
2022-11-15T22:14:07.971Z,9.21
2022-11-15T22:17:05.504Z,9.21
2022-11-15T22:20:22.877Z,9.19
2022-11-15T22:23:20.640Z,9.18
2022-11-15T22:26:22.987Z,9.16
2022-11-15T22:29:21.267Z,9.16
2022-11-15T22:32:18.867Z,9.17
2022-11-15T22:35:16.800Z,9.18
2022-11-15T22:38:14.304Z,9.18
2022-11-15T22:41:12.670Z,9.18
2022-11-15T22:44:10.256Z,9.16
2022-11-15T22:47:07.826Z,9.16
2022-11-15T22:50:06.654Z,9.17
2022-11-15T22:53:04.224Z,9.18
2022-11-15T22:56:01.774Z,9.19
2022-11-15T22:58:59.324Z,9.17
2022-11-15T23:02:02.048Z,9.15
2022-11-15T23:04:59.592Z,9.14
2022-11-15T23:07:57.126Z,9.14
2022-11-15T23:11:12.175Z,9.13
2022-11-15T23:14:10.897Z,9.13
2022-11-15T23:17:08.471Z,9.13
2022-11-15T23:20:22.526Z,9.10
2022-11-15T23:23:23.571Z,9.09
2022-11-15T23:26:21.109Z,9.09
2022-11-15T23:29:18.669Z,9.10
2022-11-15T23:32:34.623Z,9.10
2022-11-15T23:35:32.255Z,9.07
2022-11-15T23:38:29.982Z,9.06
2022-11-15T23:41:27.747Z,9.05
2022-11-15T23:44:25.275Z,9.03
2022-11-15T23:47:22.863Z,9.02
2022-11-15T23:50:20.457Z,9.03
2022-11-15T23:53:17.998Z,9.04
2022-11-15T23:56:15.536Z,9.04
2022-11-15T23:59:13.119Z,9.04
